createdAt,value
2023-01-17T00:00:03.703Z,93.68
2023-01-17T00:01:03.590Z,93.68
2023-01-17T00:02:03.596Z,93.37
2023-01-17T00:03:03.614Z,93.78
2023-01-17T00:04:03.601Z,93.57
2023-01-17T00:05:03.577Z,92.94
2023-01-17T00:06:03.580Z,93.47
2023-01-17T00:07:03.580Z,93.05
2023-01-17T00:08:03.554Z,92.59
2023-01-17T00:09:04.391Z,92.69
2023-01-17T00:10:03.528Z,92.01
2023-01-17T00:11:03.525Z,91.70
2023-01-17T00:12:03.510Z,91.86
2023-01-17T00:13:03.548Z,92.11
2023-01-17T00:14:03.513Z,91.76
2023-01-17T00:15:03.491Z,92.28
2023-01-17T00:16:03.490Z,91.76
2023-01-17T00:17:03.473Z,91.76
2023-01-17T00:18:03.971Z,91.24
2023-01-17T00:19:03.470Z,90.52
2023-01-17T00:20:03.449Z,91.14
2023-01-17T00:21:03.467Z,90.62
2023-01-17T00:22:03.440Z,90.72
2023-01-17T00:23:03.431Z,90.72
2023-01-17T00:24:03.421Z,90.37
2023-01-17T00:26:31.621Z,91.41
2023-01-17T00:27:31.615Z,90.31
2023-01-17T00:28:31.625Z,91.31
2023-01-17T00:29:32.698Z,91.35
2023-01-17T00:30:32.708Z,91.14
2023-01-17T00:31:32.705Z,91.35
2023-01-17T00:32:33.558Z,91.03
2023-01-17T00:33:32.700Z,91.20
2023-01-17T00:34:32.664Z,91.14
2023-01-17T00:35:32.651Z,91.00
2023-01-17T00:36:32.644Z,91.31
2023-01-17T00:37:32.629Z,91.24
2023-01-17T00:38:32.630Z,91.41
2023-01-17T00:39:32.623Z,91.14
2023-01-17T00:40:32.616Z,90.89
2023-01-17T00:41:32.605Z,90.79
2023-01-17T00:42:32.605Z,90.79
2023-01-17T00:43:32.597Z,90.06
2023-01-17T00:44:32.576Z,90.17
2023-01-17T00:45:32.569Z,90.37
2023-01-17T00:46:32.625Z,90.06
2023-01-17T00:47:32.549Z,90.37
2023-01-17T00:48:32.552Z,89.34
2023-01-17T00:49:32.559Z,90.06
2023-01-17T00:50:32.525Z,90.17
2023-01-17T00:51:33.068Z,90.06
2023-01-17T00:52:32.519Z,89.96
2023-01-17T00:53:32.532Z,90.17
2023-01-17T00:54:32.512Z,90.44
2023-01-17T00:55:32.497Z,90.37
2023-01-17T00:56:32.493Z,90.54
2023-01-17T00:57:32.478Z,90.33
2023-01-17T00:58:32.580Z,90.64
2023-01-17T00:59:32.462Z,90.44
2023-01-17T01:00:32.521Z,90.44
2023-01-17T01:01:32.533Z,90.12
2023-01-17T01:02:32.552Z,90.06
2023-01-17T01:03:32.441Z,89.50
2023-01-17T01:04:32.429Z,89.96
2023-01-17T01:05:32.425Z,90.23
2023-01-17T01:06:32.410Z,89.86
2023-01-17T01:07:32.399Z,89.50
2023-01-17T01:08:32.402Z,89.61
2023-01-17T01:09:32.379Z,89.50
2023-01-17T01:10:33.094Z,89.61
2023-01-17T01:11:32.377Z,89.50
2023-01-17T01:12:32.363Z,90.02
2023-01-17T01:13:32.345Z,89.50
2023-01-17T01:14:32.327Z,89.40
2023-01-17T01:15:33.339Z,89.61
2023-01-17T01:16:32.390Z,89.19
2023-01-17T01:17:32.339Z,88.88
2023-01-17T01:18:32.308Z,89.40
2023-01-17T01:19:32.388Z,89.09
2023-01-17T01:20:32.312Z,88.98
2023-01-17T01:21:32.295Z,88.98
2023-01-17T01:22:32.290Z,89.09
2023-01-17T01:23:32.295Z,89.19
2023-01-17T01:24:32.294Z,88.98
2023-01-17T01:25:32.275Z,89.09
2023-01-17T01:26:32.280Z,89.19
2023-01-17T01:27:32.246Z,89.19
2023-01-17T01:28:32.280Z,89.19
2023-01-17T01:29:33.237Z,89.03
2023-01-17T01:30:32.223Z,89.40
2023-01-17T01:31:32.287Z,88.98
2023-01-17T01:32:32.213Z,88.98
2023-01-17T01:33:32.200Z,88.88
2023-01-17T01:34:32.200Z,89.29
2023-01-17T01:35:32.175Z,88.05
2023-01-17T01:36:33.174Z,87.95
2023-01-17T01:37:32.167Z,88.05
2023-01-17T01:38:32.166Z,88.36
2023-01-17T01:39:32.156Z,88.36
2023-01-17T01:40:32.153Z,88.67
2023-01-17T01:41:32.142Z,88.98
2023-01-17T01:42:32.127Z,88.78
2023-01-17T01:43:32.118Z,88.67
2023-01-17T01:44:32.118Z,89.19
2023-01-17T01:45:32.131Z,88.15
2023-01-17T01:46:32.108Z,88.36
2023-01-17T01:47:32.094Z,88.15
2023-01-17T01:48:32.074Z,88.15
2023-01-17T01:49:32.078Z,89.29
2023-01-17T01:50:32.064Z,89.19
2023-01-17T01:51:32.568Z,88.67
2023-01-17T01:52:32.584Z,89.19
2023-01-17T01:53:32.048Z,89.19
2023-01-17T01:54:32.037Z,89.19
2023-01-17T01:55:32.029Z,88.98
2023-01-17T01:56:32.023Z,89.09
2023-01-17T01:57:32.008Z,89.19
2023-01-17T01:58:32.015Z,89.09
2023-01-17T01:59:31.993Z,89.50
2023-01-17T02:00:31.995Z,89.40
2023-01-17T02:01:32.279Z,89.54
2023-01-17T02:02:31.965Z,89.44
2023-01-17T02:03:32.009Z,89.86
2023-01-17T02:04:32.948Z,89.75
2023-01-17T02:05:31.943Z,89.65
2023-01-17T02:06:31.946Z,89.65
2023-01-17T02:07:31.925Z,90.10
2023-01-17T02:08:31.921Z,89.44
2023-01-17T02:09:31.911Z,89.65
2023-01-17T02:10:31.917Z,90.17
2023-01-17T02:11:31.924Z,89.89
2023-01-17T02:12:31.894Z,90.37
2023-01-17T02:13:31.881Z,90.20
2023-01-17T02:14:31.875Z,90.37
2023-01-17T02:15:31.871Z,90.20
2023-01-17T02:16:31.905Z,90.31
2023-01-17T02:17:32.506Z,90.31
2023-01-17T02:18:31.850Z,90.10
2023-01-17T02:19:31.851Z,90.31
2023-01-17T02:20:31.837Z,90.10
2023-01-17T02:21:31.831Z,90.20
2023-01-17T02:22:31.811Z,90.41
2023-01-17T02:23:31.804Z,90.17
2023-01-17T02:24:31.802Z,90.27
2023-01-17T02:25:31.793Z,89.96
2023-01-17T02:26:31.791Z,89.75
2023-01-17T02:27:31.786Z,89.75
2023-01-17T02:28:31.773Z,89.44
2023-01-17T02:29:31.763Z,89.44
2023-01-17T02:30:31.759Z,89.44
2023-01-17T02:31:31.813Z,89.75
2023-01-17T02:32:31.743Z,88.92
2023-01-17T02:33:31.739Z,89.17
2023-01-17T02:34:31.716Z,89.17
2023-01-17T02:35:31.708Z,89.48
2023-01-17T02:36:31.739Z,89.58
2023-01-17T02:37:31.698Z,89.17
2023-01-17T02:38:31.685Z,89.06
2023-01-17T02:39:31.690Z,88.96
2023-01-17T02:40:31.678Z,89.27
2023-01-17T02:41:31.672Z,88.85
2023-01-17T02:42:31.659Z,89.17
2023-01-17T02:43:31.645Z,89.17
2023-01-17T02:44:31.699Z,89.37
2023-01-17T02:45:31.675Z,89.13
2023-01-17T02:46:31.637Z,89.17
2023-01-17T02:47:31.621Z,89.17
2023-01-17T02:48:31.615Z,88.61
2023-01-17T02:49:31.610Z,89.03
2023-01-17T02:50:31.595Z,88.96
2023-01-17T02:51:31.596Z,89.27
2023-01-17T02:52:31.583Z,89.27
2023-01-17T02:53:31.575Z,89.17
2023-01-17T02:54:31.553Z,89.48
2023-01-17T02:55:31.555Z,89.27
2023-01-17T02:56:32.581Z,89.58
2023-01-17T02:57:32.547Z,89.89
2023-01-17T02:58:31.526Z,90.04
2023-01-17T02:59:31.519Z,89.69
2023-01-17T03:00:31.527Z,90.14
2023-01-17T03:01:31.616Z,90.62
2023-01-17T03:02:31.542Z,90.10
2023-01-17T03:03:31.495Z,90.10
2023-01-17T03:04:31.479Z,90.66
2023-01-17T03:05:31.487Z,90.52
2023-01-17T03:06:31.485Z,90.72
2023-01-17T03:07:31.473Z,90.45
2023-01-17T03:08:31.480Z,90.83
2023-01-17T03:09:31.447Z,90.41
2023-01-17T03:10:31.439Z,90.14
2023-01-17T03:11:31.427Z,90.45
2023-01-17T03:12:31.419Z,89.79
2023-01-17T03:13:31.434Z,89.69
2023-01-17T03:14:31.409Z,90.35
2023-01-17T03:15:31.398Z,90.10
2023-01-17T03:16:31.469Z,90.04
2023-01-17T03:17:31.387Z,89.79
2023-01-17T03:18:31.370Z,90.14
2023-01-17T03:19:31.378Z,89.62
2023-01-17T03:20:31.358Z,89.62
2023-01-17T03:21:31.352Z,90.20
2023-01-17T03:22:31.349Z,89.48
2023-01-17T03:23:31.346Z,89.62
2023-01-17T03:24:31.329Z,89.37
2023-01-17T03:25:31.323Z,89.42
2023-01-17T03:26:31.318Z,89.79
2023-01-17T03:27:31.304Z,89.73
2023-01-17T03:28:31.295Z,89.42
2023-01-17T03:29:31.300Z,88.90
2023-01-17T03:30:31.370Z,89.21
2023-01-17T03:31:31.288Z,89.00
2023-01-17T03:32:31.276Z,89.11
2023-01-17T03:33:31.260Z,89.21
2023-01-17T03:34:31.265Z,89.21
2023-01-17T03:35:32.088Z,89.31
2023-01-17T03:36:31.237Z,89.00
2023-01-17T03:37:31.241Z,89.21
2023-01-17T03:38:31.219Z,88.42
2023-01-17T03:39:31.217Z,88.28
2023-01-17T03:40:31.207Z,89.31
2023-01-17T03:41:31.203Z,89.42
2023-01-17T03:42:31.186Z,88.17
2023-01-17T03:43:31.191Z,89.21
2023-01-17T03:44:31.187Z,88.69
2023-01-17T03:45:31.231Z,89.11
2023-01-17T03:46:31.182Z,89.31
2023-01-17T03:47:31.153Z,89.31
2023-01-17T03:48:31.154Z,88.48
2023-01-17T03:49:31.155Z,88.07
2023-01-17T03:50:31.132Z,87.96
2023-01-17T03:51:31.128Z,88.38
2023-01-17T03:52:31.120Z,87.34
2023-01-17T03:53:31.109Z,87.65
2023-01-17T03:54:31.104Z,87.45
2023-01-17T03:55:31.091Z,87.76
2023-01-17T03:56:31.082Z,87.13
2023-01-17T03:57:31.071Z,87.55
2023-01-17T03:58:31.067Z,87.51
2023-01-17T03:59:31.061Z,87.34
2023-01-17T04:00:31.050Z,87.24
2023-01-17T04:01:31.146Z,87.24
2023-01-17T04:02:31.073Z,87.34
2023-01-17T04:03:31.029Z,87.24
2023-01-17T04:04:31.024Z,87.24
2023-01-17T04:05:31.012Z,87.65
2023-01-17T04:06:31.013Z,87.45
2023-01-17T04:07:30.994Z,87.27
2023-01-17T04:08:30.990Z,87.45
2023-01-17T04:09:30.997Z,87.65
2023-01-17T04:10:30.975Z,86.51
2023-01-17T04:11:31.600Z,87.45
2023-01-17T04:12:30.959Z,87.45
2023-01-17T04:13:30.947Z,87.45
2023-01-17T04:14:30.956Z,87.45
2023-01-17T04:15:30.932Z,86.78
2023-01-17T04:16:30.961Z,85.85
2023-01-17T04:17:30.932Z,85.68
2023-01-17T04:18:30.918Z,85.85
2023-01-17T04:19:30.910Z,86.68
2023-01-17T04:20:30.943Z,86.68
2023-01-17T04:21:30.886Z,86.82
2023-01-17T04:22:30.896Z,87.30
2023-01-17T04:23:30.878Z,87.82
2023-01-17T04:24:30.868Z,87.19
2023-01-17T04:25:31.026Z,86.99
2023-01-17T04:26:30.859Z,87.55
2023-01-17T04:27:30.867Z,88.38
2023-01-17T04:28:30.841Z,88.69
2023-01-17T04:29:30.829Z,88.38
2023-01-17T04:30:30.849Z,87.96
2023-01-17T04:31:30.843Z,87.55
2023-01-17T04:32:30.807Z,88.17
2023-01-17T04:33:30.814Z,87.86
2023-01-17T04:34:30.798Z,88.17
2023-01-17T04:35:31.522Z,89.21
2023-01-17T04:36:30.793Z,87.55
2023-01-17T04:37:30.779Z,87.90
2023-01-17T04:38:30.777Z,87.38
2023-01-17T04:39:30.763Z,87.76
2023-01-17T04:40:30.758Z,88.07
2023-01-17T04:41:30.746Z,88.07
2023-01-17T04:42:30.736Z,87.90
2023-01-17T04:43:30.732Z,87.59
2023-01-17T04:44:30.726Z,87.45
2023-01-17T04:45:30.716Z,87.45
2023-01-17T04:46:30.729Z,87.76
2023-01-17T04:47:30.712Z,87.59
2023-01-17T04:48:30.690Z,88.21
2023-01-17T04:49:30.691Z,89.56
2023-01-17T04:50:30.676Z,89.36
2023-01-17T04:51:30.669Z,89.15
2023-01-17T04:52:30.656Z,89.25
2023-01-17T04:53:30.649Z,89.56
2023-01-17T04:54:30.642Z,89.62
2023-01-17T04:55:30.632Z,89.36
2023-01-17T04:56:30.633Z,89.15
2023-01-17T04:57:30.616Z,88.59
2023-01-17T04:58:30.637Z,88.07
2023-01-17T04:59:30.605Z,88.00
2023-01-17T05:00:30.600Z,88.21
2023-01-17T05:01:30.725Z,89.36
2023-01-17T05:02:30.602Z,89.39
2023-01-17T05:03:30.572Z,89.04
2023-01-17T05:04:30.559Z,89.04
2023-01-17T05:05:30.559Z,89.46
2023-01-17T05:06:30.571Z,89.15
2023-01-17T05:07:30.557Z,89.04
2023-01-17T05:08:30.553Z,89.04
2023-01-17T05:09:30.537Z,89.08
2023-01-17T05:10:30.516Z,89.25
2023-01-17T05:11:30.508Z,89.15
2023-01-17T05:12:30.525Z,89.39
2023-01-17T05:13:30.496Z,88.52
2023-01-17T05:14:30.488Z,88.77
2023-01-17T05:15:30.508Z,89.15
2023-01-17T05:16:30.467Z,88.87
2023-01-17T05:17:30.475Z,89.29
2023-01-17T05:18:30.454Z,88.87
2023-01-17T05:19:30.448Z,88.35
2023-01-17T05:20:30.438Z,88.67
2023-01-17T05:21:30.431Z,88.77
2023-01-17T05:22:30.419Z,88.77
2023-01-17T05:23:30.418Z,89.60
2023-01-17T05:24:30.425Z,89.50
2023-01-17T05:25:30.399Z,88.98
2023-01-17T05:26:31.105Z,89.18
2023-01-17T05:27:30.378Z,89.18
2023-01-17T05:28:30.371Z,89.23
2023-01-17T05:29:30.399Z,89.70
2023-01-17T05:30:30.371Z,89.43
2023-01-17T05:31:30.355Z,89.33
2023-01-17T05:32:30.341Z,89.23
2023-01-17T05:33:30.347Z,89.12
2023-01-17T05:34:30.316Z,89.12
2023-01-17T05:35:30.339Z,89.33
2023-01-17T05:36:30.316Z,89.23
2023-01-17T05:37:30.312Z,89.23
2023-01-17T05:38:30.314Z,89.02
2023-01-17T05:39:30.292Z,89.18
2023-01-17T05:40:30.298Z,88.77
2023-01-17T05:41:30.268Z,88.29
2023-01-17T05:42:30.261Z,88.35
2023-01-17T05:43:30.267Z,87.98
2023-01-17T05:44:30.247Z,88.29
2023-01-17T05:45:30.232Z,87.88
2023-01-17T05:46:30.275Z,87.98
2023-01-17T05:47:30.229Z,87.77
2023-01-17T05:48:30.216Z,88.29
2023-01-17T05:49:30.210Z,87.94
2023-01-17T05:50:30.220Z,88.09
2023-01-17T05:51:30.201Z,87.15
2023-01-17T05:52:30.195Z,87.25
2023-01-17T05:53:30.200Z,87.98
2023-01-17T05:54:30.168Z,87.56
2023-01-17T05:55:30.193Z,87.15
2023-01-17T05:56:30.168Z,87.15
2023-01-17T05:57:30.151Z,87.46
2023-01-17T05:58:30.142Z,87.56
2023-01-17T05:59:37.133Z,87.77
2023-01-17T06:00:32.125Z,87.66
2023-01-17T06:01:30.128Z,87.04
2023-01-17T06:02:30.129Z,87.73
2023-01-17T06:03:30.109Z,86.73
2023-01-17T06:04:30.185Z,86.73
2023-01-17T06:05:30.635Z,85.96
2023-01-17T06:06:30.074Z,85.59
2023-01-17T06:07:30.067Z,85.65
2023-01-17T06:08:30.058Z,85.75
2023-01-17T06:09:30.091Z,85.28
2023-01-17T06:10:30.048Z,84.86
2023-01-17T06:11:30.045Z,84.75
2023-01-17T06:12:30.058Z,84.75
2023-01-17T06:13:30.015Z,84.75
2023-01-17T06:14:30.012Z,84.65
2023-01-17T06:15:29.999Z,84.86
2023-01-17T06:16:30.024Z,84.34
2023-01-17T06:17:30.530Z,84.75
2023-01-17T06:18:29.969Z,84.65
2023-01-17T06:19:29.978Z,84.44
2023-01-17T06:20:29.964Z,84.44
2023-01-17T06:21:29.958Z,84.34
2023-01-17T06:22:29.955Z,83.92
2023-01-17T06:23:29.943Z,84.03
2023-01-17T06:24:29.930Z,84.44
2023-01-17T06:25:29.942Z,84.55
2023-01-17T06:26:29.927Z,84.44
2023-01-17T06:27:29.921Z,83.72
2023-01-17T06:28:29.900Z,83.20
2023-01-17T06:29:29.897Z,83.30
2023-01-17T06:30:29.892Z,83.20
2023-01-17T06:31:30.603Z,83.20
2023-01-17T06:32:29.877Z,82.99
2023-01-17T06:33:29.864Z,82.68
2023-01-17T06:34:30.538Z,82.78
2023-01-17T06:35:29.856Z,82.61
2023-01-17T06:36:29.849Z,83.03
2023-01-17T06:37:31.059Z,82.92
2023-01-17T06:38:29.849Z,83.13
2023-01-17T06:39:31.615Z,83.34
2023-01-17T06:40:29.825Z,83.65
2023-01-17T06:41:29.812Z,83.23
2023-01-17T06:42:29.795Z,83.54
2023-01-17T06:43:29.790Z,83.44
2023-01-17T06:44:29.774Z,83.65
2023-01-17T06:45:29.775Z,83.13
2023-01-17T06:46:29.801Z,83.03
2023-01-17T06:47:30.618Z,82.82
2023-01-17T06:48:29.751Z,82.61
2023-01-17T06:49:29.759Z,82.82
2023-01-17T06:50:30.623Z,82.82
2023-01-17T06:51:29.717Z,82.61
2023-01-17T06:52:29.726Z,82.82
2023-01-17T06:53:29.710Z,82.82
2023-01-17T06:54:29.703Z,82.61
2023-01-17T06:55:29.695Z,82.92
2023-01-17T06:56:29.693Z,83.34
2023-01-17T06:57:30.566Z,83.27
2023-01-17T06:58:30.668Z,83.34
2023-01-17T06:59:29.663Z,82.82
2023-01-17T07:00:30.338Z,83.27
2023-01-17T07:01:29.789Z,83.23
2023-01-17T07:02:29.660Z,82.61
2023-01-17T07:03:29.662Z,82.20
2023-01-17T07:04:38.110Z,82.09
2023-01-17T07:05:29.636Z,81.98
2023-01-17T07:06:29.621Z,82.51
2023-01-17T07:07:29.613Z,82.30
2023-01-17T07:08:29.703Z,81.46
2023-01-17T07:09:30.575Z,80.74
2023-01-17T07:10:35.216Z,81.15
2023-01-17T07:12:40.002Z,81.05
2023-01-17T07:13:40.091Z,80.53
2023-01-17T07:14:40.007Z,80.60
2023-01-17T07:15:40.384Z,80.39
2023-01-17T07:16:41.070Z,80.53
2023-01-17T07:17:41.067Z,80.39
2023-01-17T07:18:41.056Z,81.12
2023-01-17T07:19:41.046Z,80.70
2023-01-17T07:20:41.048Z,80.08
2023-01-17T07:21:41.041Z,80.80
2023-01-17T07:22:41.022Z,80.08
2023-01-17T07:23:41.019Z,80.39
2023-01-17T07:24:41.943Z,80.60
2023-01-17T07:25:41.008Z,80.60
2023-01-17T07:27:48.348Z,80.91
2023-01-17T07:28:48.353Z,80.74
2023-01-17T07:29:49.441Z,81.12
2023-01-17T07:30:49.431Z,80.18
2023-01-17T07:31:49.458Z,80.80
2023-01-17T07:32:49.436Z,80.18
2023-01-17T07:33:50.297Z,79.97
2023-01-17T07:34:49.383Z,80.08
2023-01-17T07:35:49.401Z,79.66
2023-01-17T07:36:49.387Z,79.24
2023-01-17T07:37:49.378Z,79.97
2023-01-17T07:38:49.361Z,80.08
2023-01-17T07:39:49.385Z,79.76
2023-01-17T07:40:49.354Z,80.29
2023-01-17T07:41:49.344Z,80.18
2023-01-17T07:42:49.345Z,79.69
2023-01-17T07:43:49.329Z,79.87
2023-01-17T07:44:49.322Z,79.91
2023-01-17T07:45:49.312Z,79.80
2023-01-17T07:46:49.455Z,80.32
2023-01-17T07:47:49.291Z,80.18
2023-01-17T07:49:55.577Z,80.80
2023-01-17T07:50:55.574Z,80.18
2023-01-17T07:51:58.518Z,79.59
2023-01-17T07:52:56.663Z,80.63
2023-01-17T07:53:56.651Z,80.63
2023-01-17T07:54:57.476Z,80.84
2023-01-17T07:55:56.699Z,80.74
2023-01-17T07:56:56.627Z,80.84
2023-01-17T07:57:56.621Z,81.05
2023-01-17T07:58:56.617Z,80.98
2023-01-17T07:59:56.603Z,81.29
2023-01-17T08:00:56.700Z,81.50
2023-01-17T08:01:56.795Z,81.29
2023-01-17T08:02:56.566Z,81.09
2023-01-17T08:03:56.640Z,81.29
2023-01-17T08:04:56.554Z,81.15
2023-01-17T08:05:56.538Z,80.63
2023-01-17T08:06:56.549Z,81.26
2023-01-17T08:09:03.099Z,81.15
2023-01-17T08:10:03.084Z,80.94
2023-01-17T08:11:04.177Z,80.32
2023-01-17T08:12:04.200Z,80.53
2023-01-17T08:13:04.163Z,80.32
2023-01-17T08:14:04.195Z,80.53
2023-01-17T08:15:04.140Z,81.46
2023-01-17T08:16:04.211Z,81.05
2023-01-17T08:17:04.136Z,81.26
2023-01-17T08:18:04.108Z,80.84
2023-01-17T08:19:04.703Z,80.53
2023-01-17T08:20:04.103Z,79.87
2023-01-17T08:21:04.138Z,79.59
2023-01-17T08:22:04.096Z,80.29
2023-01-17T08:23:04.078Z,79.45
2023-01-17T08:24:04.064Z,80.29
2023-01-17T08:25:04.094Z,80.18
2023-01-17T08:26:04.047Z,79.87
2023-01-17T08:27:04.056Z,80.18
2023-01-17T08:28:04.036Z,79.52
2023-01-17T08:29:04.036Z,79.52
2023-01-17T08:30:05.023Z,79.31
2023-01-17T08:31:04.815Z,78.13
2023-01-17T08:32:04.017Z,78.34
2023-01-17T08:33:03.991Z,78.55
2023-01-17T08:34:03.979Z,78.09
2023-01-17T08:35:04.105Z,77.99
2023-01-17T08:36:03.962Z,77.44
2023-01-17T08:37:03.951Z,76.92
2023-01-17T08:38:03.946Z,76.50
2023-01-17T08:39:03.943Z,76.61
2023-01-17T08:40:03.956Z,76.81
2023-01-17T08:41:03.925Z,76.09
2023-01-17T08:42:03.934Z,76.50
2023-01-17T08:43:03.931Z,76.61
2023-01-17T08:44:03.897Z,76.50
2023-01-17T08:45:03.910Z,76.71
2023-01-17T08:46:04.771Z,76.81
2023-01-17T08:47:04.745Z,77.78
2023-01-17T08:48:03.873Z,77.64
2023-01-17T08:49:03.873Z,77.58
2023-01-17T08:50:03.844Z,77.54
2023-01-17T08:51:04.859Z,77.75
2023-01-17T08:52:03.833Z,78.06
2023-01-17T08:53:03.834Z,77.54
2023-01-17T08:54:03.837Z,77.44
2023-01-17T08:55:03.885Z,77.30
2023-01-17T08:56:03.812Z,76.57
2023-01-17T08:57:03.796Z,76.43
2023-01-17T08:58:03.858Z,76.43
2023-01-17T08:59:03.822Z,76.47
2023-01-17T09:00:04.353Z,76.37
2023-01-17T09:01:04.924Z,75.85
2023-01-17T09:02:03.885Z,74.81
2023-01-17T09:03:03.777Z,74.88
2023-01-17T09:04:03.790Z,74.98
2023-01-17T09:05:03.767Z,74.77
2023-01-17T09:06:03.735Z,74.57
2023-01-17T09:07:03.713Z,74.43
2023-01-17T09:08:04.318Z,74.46
2023-01-17T09:09:04.699Z,74.22
2023-01-17T09:10:03.696Z,74.46
2023-01-17T09:11:03.691Z,74.36
2023-01-17T09:12:03.671Z,75.19
2023-01-17T09:13:03.683Z,75.64
2023-01-17T09:14:03.683Z,75.54
2023-01-17T09:15:03.659Z,76.40
2023-01-17T09:16:03.643Z,76.50
2023-01-17T09:17:09.275Z,76.71
2023-01-17T09:18:03.641Z,76.64
2023-01-17T09:19:04.358Z,76.19
2023-01-17T09:20:03.618Z,76.64
2023-01-17T09:21:03.607Z,76.23
2023-01-17T09:22:03.585Z,77.68
2023-01-17T09:23:04.273Z,77.26
2023-01-17T09:24:03.588Z,76.54
2023-01-17T09:25:03.578Z,76.85
2023-01-17T09:26:03.564Z,76.75
2023-01-17T09:27:03.569Z,75.88
2023-01-17T09:28:03.541Z,75.88
2023-01-17T09:29:03.550Z,76.40
2023-01-17T09:30:03.530Z,76.54
2023-01-17T09:31:03.615Z,76.81
2023-01-17T09:32:03.510Z,76.50
2023-01-17T09:33:03.514Z,76.40
2023-01-17T09:34:03.493Z,76.09
2023-01-17T09:35:03.504Z,76.16
2023-01-17T09:36:03.481Z,75.57
2023-01-17T09:37:03.498Z,75.36
2023-01-17T09:38:03.460Z,75.26
2023-01-17T09:39:03.457Z,75.23
2023-01-17T09:40:03.453Z,75.12
2023-01-17T09:41:03.463Z,74.91
2023-01-17T09:42:03.430Z,74.29
2023-01-17T09:43:03.459Z,75.19
2023-01-17T09:44:03.421Z,74.46
2023-01-17T09:45:03.433Z,74.05
2023-01-17T09:46:03.676Z,73.11
2023-01-17T09:48:10.257Z,72.91
2023-01-17T09:49:10.631Z,73.39
2023-01-17T09:50:11.349Z,73.22
2023-01-17T09:51:11.341Z,73.80
2023-01-17T09:52:11.338Z,73.43
2023-01-17T09:53:11.328Z,73.80
2023-01-17T09:54:11.319Z,74.05
2023-01-17T09:55:11.304Z,73.74
2023-01-17T09:56:11.303Z,74.57
2023-01-17T09:57:11.285Z,74.36
2023-01-17T09:58:11.289Z,74.71
2023-01-17T09:59:11.278Z,73.67
2023-01-17T10:00:11.263Z,73.25
2023-01-17T10:01:11.417Z,73.43
2023-01-17T10:02:11.517Z,72.94
2023-01-17T10:03:11.364Z,72.74
2023-01-17T10:04:11.240Z,72.74
2023-01-17T10:05:11.254Z,72.94
2023-01-17T10:06:11.240Z,73.05
2023-01-17T10:07:11.234Z,72.94
2023-01-17T10:08:11.221Z,73.01
2023-01-17T10:09:11.198Z,72.98
2023-01-17T10:10:11.191Z,72.25
2023-01-17T10:11:11.197Z,73.28
2023-01-17T10:12:11.191Z,72.88
2023-01-17T10:13:12.632Z,72.56
2023-01-17T10:14:11.164Z,72.46
2023-01-17T10:16:18.067Z,71.63
2023-01-17T10:17:17.998Z,72.01
2023-01-17T10:18:29.221Z,71.70
2023-01-17T10:19:19.021Z,72.01
2023-01-17T10:20:18.001Z,71.80
2023-01-17T10:21:19.810Z,71.18
2023-01-17T10:22:19.154Z,71.18
2023-01-17T10:23:19.812Z,71.15
2023-01-17T10:24:19.972Z,71.36
2023-01-17T10:25:25.402Z,72.05
2023-01-17T10:26:28.304Z,71.12
2023-01-17T10:27:28.313Z,71.01
2023-01-17T10:28:42.829Z,69.01
2023-01-17T10:30:08.814Z,68.60
2023-01-17T10:31:13.478Z,68.70
2023-01-17T10:31:18.972Z,68.80
2023-01-17T10:32:19.487Z,68.60
2023-01-17T10:33:18.956Z,68.43
2023-01-17T10:34:18.946Z,68.94
2023-01-17T10:35:18.939Z,69.32
2023-01-17T10:36:18.945Z,70.81
2023-01-17T10:37:18.961Z,70.81
2023-01-17T10:38:18.957Z,70.29
2023-01-17T10:39:18.925Z,70.50
2023-01-17T10:40:18.941Z,69.46
2023-01-17T10:41:19.888Z,70.39
2023-01-17T10:42:18.884Z,70.70
2023-01-17T10:43:18.870Z,70.84
2023-01-17T10:44:18.866Z,70.50
2023-01-17T10:45:18.851Z,70.50
2023-01-17T10:46:18.928Z,69.25
2023-01-17T10:47:18.837Z,69.39
2023-01-17T10:48:18.834Z,70.63
2023-01-17T10:49:18.827Z,70.32
2023-01-17T10:50:18.827Z,70.53
2023-01-17T10:51:18.851Z,69.08
2023-01-17T10:52:18.816Z,68.77
2023-01-17T10:53:18.793Z,68.66
2023-01-17T10:54:18.784Z,69.49
2023-01-17T10:55:20.505Z,69.04
2023-01-17T10:56:19.411Z,68.74
2023-01-17T10:57:18.758Z,68.49
2023-01-17T10:58:18.758Z,68.08
2023-01-17T10:59:18.781Z,66.91
2023-01-17T11:00:18.724Z,67.54
2023-01-17T11:01:18.780Z,66.71
2023-01-17T11:02:18.873Z,66.06
2023-01-17T11:03:18.730Z,66.09
2023-01-17T11:04:18.763Z,66.19
2023-01-17T11:05:18.688Z,66.36
2023-01-17T11:06:18.718Z,64.32
2023-01-17T11:07:18.724Z,66.19
2023-01-17T11:08:18.671Z,65.75
2023-01-17T21:25:39.782Z,98.32
2023-01-17T21:26:39.765Z,98.53
2023-01-17T21:27:40.855Z,98.43
2023-01-17T21:28:40.842Z,98.38
2023-01-17T21:29:40.842Z,98.59
2023-01-17T21:30:40.931Z,98.53
2023-01-17T21:31:40.832Z,98.38
2023-01-17T21:32:40.809Z,98.49
2023-01-17T21:33:40.801Z,98.28
2023-01-17T21:34:41.418Z,98.49
2023-01-17T21:35:40.785Z,98.69
2023-01-17T21:36:40.803Z,98.59
2023-01-17T21:37:40.771Z,98.75
2023-01-17T21:38:40.778Z,98.75
2023-01-17T21:39:40.759Z,98.28
2023-01-17T21:40:40.747Z,97.64
2023-01-17T21:41:40.741Z,97.50
2023-01-17T21:42:40.732Z,97.54
2023-01-17T21:43:40.739Z,97.44
2023-01-17T21:44:40.717Z,97.54
2023-01-17T21:45:40.719Z,97.12
2023-01-17T21:46:40.711Z,97.12
2023-01-17T21:47:40.706Z,96.91
2023-01-17T21:48:40.704Z,97.23
2023-01-17T21:49:40.698Z,97.44
2023-01-17T21:50:40.680Z,97.02
2023-01-17T21:51:40.669Z,97.44
2023-01-17T21:52:40.662Z,97.33
2023-01-17T21:53:40.658Z,97.06
2023-01-17T21:54:40.662Z,97.06
2023-01-17T21:55:40.642Z,96.39
2023-01-17T21:56:40.628Z,97.17
2023-01-17T21:57:40.662Z,97.38
2023-01-17T21:58:40.663Z,97.38
2023-01-17T21:59:40.617Z,97.27
2023-01-17T22:00:41.509Z,97.27
2023-01-17T22:01:41.597Z,97.80
2023-01-17T22:02:40.620Z,98.74
2023-01-17T22:03:40.616Z,98.59
2023-01-17T22:04:40.574Z,98.74
2023-01-17T22:05:40.572Z,98.80
2023-01-17T22:06:40.545Z,98.17
2023-01-17T22:07:40.543Z,98.59
2023-01-17T22:08:40.541Z,98.53
2023-01-17T22:09:40.528Z,98.59
2023-01-17T22:10:40.529Z,98.59
2023-01-17T22:11:40.529Z,98.69
2023-01-17T22:12:41.479Z,98.74
2023-01-17T22:13:41.422Z,98.59
2023-01-17T22:14:40.488Z,98.38
2023-01-17T22:15:41.050Z,98.49
2023-01-17T22:16:40.481Z,98.28
2023-01-17T22:17:40.462Z,98.59
2023-01-17T22:18:40.472Z,98.80
2023-01-17T22:19:40.459Z,98.22
2023-01-17T22:20:40.455Z,98.28
2023-01-17T22:21:40.462Z,98.43
2023-01-17T22:22:40.429Z,98.80
2023-01-17T22:23:40.433Z,98.69
2023-01-17T22:24:40.458Z,98.69
2023-01-17T22:25:40.421Z,98.11
2023-01-17T22:26:41.908Z,98.53
2023-01-17T22:27:41.393Z,98.59
2023-01-17T22:28:41.383Z,98.28
2023-01-17T22:29:40.385Z,98.28
2023-01-17T22:30:40.405Z,98.59
2023-01-17T22:31:40.370Z,98.69
2023-01-17T22:32:40.376Z,98.28
2023-01-17T22:33:40.352Z,98.38
2023-01-17T22:34:40.342Z,98.17
2023-01-17T22:35:40.367Z,98.49
2023-01-17T22:36:40.324Z,98.59
2023-01-17T22:37:40.316Z,98.38
2023-01-17T22:38:40.315Z,98.49
2023-01-17T22:39:40.341Z,98.59
2023-01-17T22:40:40.924Z,98.59
2023-01-17T22:41:40.289Z,98.59
2023-01-17T22:42:40.279Z,98.80
2023-01-17T22:43:40.286Z,98.59
2023-01-17T22:44:40.279Z,98.69
2023-01-17T22:45:40.273Z,98.59
2023-01-17T22:46:40.396Z,98.49
2023-01-17T22:47:40.249Z,98.69
2023-01-17T22:48:40.232Z,98.64
2023-01-17T22:49:40.228Z,98.80
2023-01-17T22:50:40.920Z,98.74
2023-01-17T22:51:40.203Z,98.74
2023-01-17T22:52:40.197Z,98.74
2023-01-17T22:53:40.196Z,98.43
2023-01-17T22:54:40.175Z,98.38
2023-01-17T22:55:40.187Z,98.64
2023-01-17T22:56:40.179Z,98.59
2023-01-17T22:57:40.150Z,98.80
2023-01-17T22:58:40.146Z,98.64
2023-01-17T22:59:40.136Z,98.69
2023-01-17T23:00:40.130Z,98.49
2023-01-17T23:01:40.157Z,98.69
2023-01-17T23:02:40.155Z,98.74
2023-01-17T23:03:40.182Z,98.95
2023-01-17T23:04:40.096Z,98.74
2023-01-17T23:05:40.087Z,98.95
2023-01-17T23:06:40.090Z,98.74
2023-01-17T23:07:40.079Z,98.53
2023-01-17T23:08:40.079Z,99.37
2023-01-17T23:09:40.066Z,98.95
2023-01-17T23:10:40.052Z,98.95
2023-01-17T23:11:40.048Z,98.95
2023-01-17T23:12:40.067Z,98.85
2023-01-17T23:13:40.037Z,98.53
2023-01-17T23:14:40.023Z,98.74
2023-01-17T23:15:43.964Z,99.05
2023-01-17T23:16:41.004Z,98.95